createdAt,value
2022-12-04T00:04:19.869Z,31.46
2022-12-04T00:09:25.940Z,32.16
2022-12-04T00:14:32.102Z,31.54
2022-12-04T00:19:38.202Z,31.71
2022-12-04T00:24:43.281Z,31.57
2022-12-04T00:29:49.812Z,31.18
2022-12-04T00:34:56.484Z,31.46
2022-12-04T00:40:01.785Z,30.96
2022-12-04T00:45:08.543Z,32.09
2022-12-04T00:50:16.126Z,31.32
2022-12-04T00:55:43.803Z,30.34
2022-12-04T01:00:50.662Z,30.04
2022-12-04T01:12:56.860Z,30.66
2022-12-04T01:18:22.711Z,30.74
2022-12-04T01:23:33.733Z,29.92
2022-12-04T01:28:42.181Z,30.47
2022-12-04T01:33:49.018Z,30.08
2022-12-04T01:38:54.895Z,30.80
2022-12-04T01:44:22.625Z,29.76
2022-12-04T01:49:39.951Z,29.77
2022-12-04T01:54:50.427Z,29.96
2022-12-04T01:59:59.615Z,30.18
2022-12-04T02:05:05.428Z,30.52
2022-12-04T02:10:13.993Z,29.19
2022-12-04T02:15:24.787Z,29.15
2022-12-04T02:20:42.585Z,30.11
2022-12-04T02:26:16.245Z,28.45
2022-12-04T02:31:24.675Z,28.59
2022-12-04T02:36:36.863Z,29.26
2022-12-04T02:42:02.500Z,29.21
2022-12-04T02:47:14.018Z,29.08
2022-12-04T02:52:25.202Z,28.50
2022-12-04T02:57:36.422Z,29.23
2022-12-04T03:03:06.065Z,29.14
2022-12-04T03:08:18.748Z,28.12
2022-12-04T03:13:43.170Z,29.27
2022-12-04T03:19:12.164Z,28.73
2022-12-04T03:24:22.600Z,29.26
2022-12-04T03:29:55.937Z,29.36
2022-12-04T03:35:35.829Z,28.98
2022-12-04T03:41:07.682Z,28.79
2022-12-04T03:46:39.559Z,28.23
2022-12-04T03:52:44.270Z,28.34
2022-12-04T03:57:54.393Z,28.29
2022-12-04T04:03:11.449Z,28.72
2022-12-04T04:08:36.410Z,28.16
2022-12-04T04:14:18.769Z,28.46
2022-12-04T04:19:56.024Z,28.37
2022-12-04T04:25:17.119Z,29.10
2022-12-04T04:30:22.924Z,28.57
2022-12-04T04:35:36.115Z,27.75
2022-12-04T04:40:58.185Z,28.72
2022-12-04T04:46:18.054Z,28.78
2022-12-04T04:51:25.117Z,27.22
2022-12-04T04:56:35.514Z,28.05
2022-12-04T05:01:43.651Z,26.01
2022-12-04T05:06:50.224Z,27.56
2022-12-04T05:11:57.473Z,28.45
2022-12-04T05:17:10.894Z,27.99
2022-12-04T05:22:20.357Z,28.61
2022-12-04T05:27:26.784Z,28.53
2022-12-04T05:32:34.855Z,28.56
2022-12-04T05:37:43.562Z,27.64
2022-12-04T05:42:50.204Z,28.29
2022-12-04T05:47:56.722Z,27.72
2022-12-04T05:53:03.144Z,26.13
2022-12-04T05:58:09.893Z,28.09
2022-12-04T06:03:24.956Z,27.98
2022-12-04T06:08:30.522Z,27.31
2022-12-04T06:13:37.477Z,27.59
2022-12-04T06:18:43.175Z,28.33
2022-12-04T06:23:50.540Z,28.20
2022-12-04T06:29:03.909Z,28.34
2022-12-04T06:34:11.260Z,28.28
2022-12-04T06:39:19.168Z,28.97
2022-12-04T06:44:25.124Z,28.72
2022-12-04T06:49:32.266Z,28.52
2022-12-04T06:54:40.202Z,28.53
2022-12-04T06:59:45.650Z,27.92
2022-12-04T07:04:51.001Z,27.90
2022-12-04T07:09:57.874Z,28.50
2022-12-04T07:15:04.372Z,28.72
2022-12-04T07:20:12.998Z,28.85
2022-12-04T07:25:18.643Z,28.61
2022-12-04T07:30:25.193Z,28.66
2022-12-04T07:35:30.567Z,28.33
2022-12-04T07:40:35.832Z,28.53
2022-12-04T07:45:43.991Z,28.35
2022-12-04T07:50:50.738Z,28.52
2022-12-04T07:55:58.619Z,28.53
2022-12-04T08:01:17.785Z,28.72
2022-12-04T08:06:25.917Z,28.62
2022-12-04T08:11:33.406Z,28.72
2022-12-04T08:16:40.968Z,28.86
2022-12-04T08:21:47.128Z,28.41
2022-12-04T08:26:52.995Z,28.75
2022-12-04T08:31:58.379Z,28.56
2022-12-04T08:37:03.758Z,28.41
2022-12-04T08:42:08.926Z,28.33
2022-12-04T08:47:14.711Z,28.77
2022-12-04T08:52:21.599Z,28.93
2022-12-04T08:57:30.218Z,29.81
2022-12-04T09:02:35.688Z,29.48
2022-12-04T09:07:41.024Z,29.68
2022-12-04T09:12:47.536Z,29.51
2022-12-04T09:17:52.698Z,29.52
2022-12-04T09:23:04.822Z,29.15
2022-12-04T09:28:11.560Z,30.07
2022-12-04T09:33:16.713Z,29.87
2022-12-04T09:38:23.280Z,30.80
2022-12-04T09:43:47.928Z,30.15
2022-12-04T09:48:54.991Z,30.34
2022-12-04T09:54:16.403Z,29.75
2022-12-04T09:59:28.965Z,30.71
2022-12-04T10:04:35.169Z,30.68
2022-12-04T10:09:53.435Z,30.82
2022-12-04T10:15:07.031Z,30.68
2022-12-04T10:20:35.065Z,30.01
2022-12-04T10:25:42.121Z,31.32
2022-12-04T10:30:49.555Z,31.68
2022-12-04T10:35:58.629Z,30.74
2022-12-04T10:41:28.504Z,31.75
2022-12-04T10:46:43.158Z,31.39
2022-12-04T10:51:52.170Z,30.91
2022-12-04T10:57:09.329Z,31.20
2022-12-04T11:02:23.118Z,31.75
2022-12-04T11:07:47.044Z,30.66
2022-12-04T11:13:05.291Z,31.43
2022-12-04T11:18:29.137Z,30.58
2022-12-04T11:23:51.287Z,31.58
2022-12-04T11:29:06.007Z,31.83
2022-12-04T11:34:22.067Z,31.52
2022-12-04T11:39:44.759Z,31.52
2022-12-04T11:45:03.662Z,31.45
2022-12-04T11:50:39.259Z,31.48
2022-12-04T11:56:08.307Z,31.84
2022-12-04T12:01:39.169Z,31.84
2022-12-04T12:07:21.027Z,31.24
2022-12-04T12:12:32.977Z,32.28
2022-12-04T12:18:10.341Z,31.39
2022-12-04T12:23:28.528Z,31.71
2022-12-04T12:29:03.326Z,32.45
2022-12-04T12:34:20.793Z,31.56
2022-12-04T12:39:41.555Z,32.94
2022-12-04T12:44:52.482Z,32.83
2022-12-04T12:49:58.265Z,33.24
2022-12-04T12:55:29.884Z,32.61
2022-12-04T13:00:45.472Z,32.71
2022-12-04T13:05:58.019Z,32.62
2022-12-04T13:11:18.154Z,32.74
2022-12-04T13:16:51.798Z,32.69
2022-12-04T13:22:08.579Z,32.51
2022-12-04T13:27:18.191Z,32.76
2022-12-04T13:32:52.788Z,32.36
2022-12-04T13:38:18.930Z,32.61
2022-12-04T13:43:38.237Z,33.11
2022-12-04T13:48:45.497Z,33.26
2022-12-04T13:54:02.405Z,34.42
2022-12-04T13:59:24.765Z,33.28
2022-12-04T14:04:36.125Z,33.64
2022-12-04T14:09:54.860Z,33.34
2022-12-04T14:15:10.965Z,33.55
2022-12-04T14:20:34.884Z,33.14
2022-12-04T14:25:49.285Z,34.40
2022-12-04T14:31:16.951Z,33.82
2022-12-04T14:36:42.276Z,33.21
2022-12-04T14:41:48.528Z,33.83
2022-12-04T14:47:09.585Z,34.10
2022-12-04T14:52:35.624Z,34.42
2022-12-04T14:58:30.089Z,33.47
2022-12-04T15:03:46.927Z,34.79
2022-12-04T15:09:19.164Z,35.50
2022-12-04T15:14:24.617Z,34.30
2022-12-04T15:19:30.121Z,33.64
2022-12-04T15:24:35.669Z,34.18
2022-12-04T15:29:51.723Z,34.38
2022-12-04T15:35:05.098Z,35.06
2022-12-04T15:40:13.425Z,35.48
2022-12-04T15:45:24.480Z,34.27
2022-12-04T15:50:32.733Z,34.81
2022-12-04T15:56:04.822Z,34.78
2022-12-04T16:01:17.143Z,34.16
2022-12-04T16:06:30.518Z,35.43
2022-12-04T16:11:40.120Z,34.32
2022-12-04T16:16:51.500Z,34.47
2022-12-04T16:21:58.434Z,35.10
2022-12-04T16:27:04.897Z,35.04
2022-12-04T16:32:19.576Z,34.72
2022-12-04T16:37:26.086Z,34.89
2022-12-04T16:42:33.004Z,34.91
2022-12-04T16:47:38.543Z,35.45
2022-12-04T16:52:43.847Z,36.90
2022-12-04T16:57:49.429Z,34.80
2022-12-04T17:02:55.239Z,37.24
2022-12-04T17:08:03.439Z,36.09
2022-12-04T17:13:09.435Z,35.74
2022-12-04T17:18:20.752Z,35.62
2022-12-04T17:23:27.157Z,35.73
2022-12-04T17:28:33.365Z,36.50
2022-12-04T17:33:38.631Z,35.46
2022-12-04T17:38:47.301Z,35.74
2022-12-04T17:43:53.071Z,36.01
2022-12-04T17:49:03.942Z,36.52
2022-12-04T17:54:13.682Z,36.18
2022-12-04T17:59:19.139Z,35.81
2022-12-04T18:04:24.523Z,35.91
2022-12-04T18:09:29.798Z,35.69
2022-12-04T18:14:35.802Z,36.48
2022-12-04T18:19:42.824Z,36.00
2022-12-04T18:24:47.882Z,36.60
2022-12-04T18:29:53.115Z,36.36
2022-12-04T18:34:58.305Z,36.94
2022-12-04T18:40:06.509Z,36.06
2022-12-04T18:45:13.384Z,36.28
2022-12-04T18:50:18.794Z,35.69
2022-12-04T18:55:23.905Z,36.89
2022-12-04T19:00:28.936Z,38.01
2022-12-04T19:05:34.747Z,37.75
2022-12-04T19:10:39.927Z,36.68
2022-12-04T19:15:47.650Z,37.14
2022-12-04T19:20:54.186Z,37.38
2022-12-04T19:26:01.360Z,36.61
2022-12-04T19:31:06.446Z,36.94
2022-12-04T19:36:13.457Z,35.82
2022-12-04T19:41:22.727Z,35.81
2022-12-04T19:46:31.644Z,35.84
2022-12-04T19:51:39.846Z,36.33
2022-12-04T19:56:47.580Z,36.11
2022-12-04T20:01:52.768Z,36.26
2022-12-04T20:06:57.878Z,36.20
2022-12-04T20:12:02.879Z,36.42
2022-12-04T20:17:07.833Z,37.26
2022-12-04T20:22:13.624Z,37.64
2022-12-04T20:27:18.612Z,38.03
2022-12-04T20:32:23.656Z,37.93
2022-12-04T20:37:28.652Z,38.01
2022-12-04T20:42:34.709Z,37.26
2022-12-04T20:47:41.943Z,37.05
2022-12-04T20:52:47.607Z,39.40
2022-12-04T20:57:53.169Z,40.70
2022-12-04T21:02:58.231Z,38.18
2022-12-04T21:08:03.275Z,39.12
2022-12-04T21:13:26.432Z,38.93
2022-12-04T21:18:31.425Z,38.50
2022-12-04T21:23:37.223Z,37.87
2022-12-04T21:28:43.258Z,38.76
2022-12-04T21:33:48.345Z,39.20
2022-12-04T21:38:54.051Z,39.07
2022-12-04T21:43:59.010Z,38.19
2022-12-04T21:49:04.143Z,39.03
2022-12-04T21:54:09.287Z,37.63
2022-12-04T21:59:14.474Z,38.92
2022-12-04T22:04:19.813Z,38.52
2022-12-04T22:09:24.832Z,38.43
2022-12-04T22:14:29.933Z,40.33
2022-12-04T22:19:35.366Z,40.55
2022-12-04T22:24:40.291Z,40.24
2022-12-04T22:29:52.278Z,39.77
2022-12-04T22:34:57.336Z,39.37
2022-12-04T22:40:02.303Z,41.79
2022-12-04T22:45:07.630Z,40.42
2022-12-04T22:50:13.606Z,41.33
2022-12-04T22:55:18.634Z,39.85
2022-12-04T23:00:23.786Z,40.04
2022-12-04T23:05:28.802Z,39.08
2022-12-04T23:10:33.942Z,39.69
2022-12-04T23:15:41.292Z,38.78
2022-12-04T23:20:46.174Z,39.88
2022-12-04T23:25:51.249Z,39.30
2022-12-04T23:30:56.242Z,39.76
2022-12-04T23:36:03.772Z,40.28
2022-12-04T23:41:20.971Z,40.39
2022-12-04T23:46:33.511Z,40.08
2022-12-04T23:51:38.705Z,39.25
2022-12-04T23:56:43.811Z,38.50
